<?xml version="1.0" encoding="UTF-8" ?>
		<gpx
		 version="1.0"
		 xmlns:xsi="http://www.w3.org/2001/XMLSchema-instance"
		 xmlns="http://www.topografix.com/GPX/1/0"
		 xsi:schemaLocation="http://www.topografix.com/GPX/1/0 http://www.topografix.com/GPX/1/0/gpx.xsd"
		 creator="http://www.openrunner.com">
			<trk>
				<name>OR-7915892--Loppiano:Salita dei Campioni - Louison Bobet</name>
			    <trkseg>
	
			<trkpt lat="44.562030" lon="8.009150">
			 <ele>423</ele>
			<time>2017-11-10T16:03:30Z</time>
			</trkpt>
		
			<trkpt lat="44.562020" lon="8.009110">
			 <ele>423</ele>
			<time>2017-11-10T16:05:30Z</time>
			</trkpt>
		
			<trkpt lat="44.562020" lon="8.008950">
			 <ele>422</ele>
			<time>2017-11-10T16:07:30Z</time>
			</trkpt>
		
			<trkpt lat="44.562020" lon="8.008830">
			 <ele>422</ele>
			<time>2017-11-10T16:09:30Z</time>
			</trkpt>
		
			<trkpt lat="44.562040" lon="8.008580">
			 <ele>422</ele>
			<time>2017-11-10T16:11:30Z</time>
			</trkpt>
		
			<trkpt lat="44.562040" lon="8.008580">
			 <ele>422</ele>
			<time>2017-11-10T16:13:30Z</time>
			</trkpt>
		
			<trkpt lat="44.561910" lon="8.008630">
			 <ele>419</ele>
			<time>2017-11-10T16:15:30Z</time>
			</trkpt>
		
			<trkpt lat="44.561750" lon="8.008690">
			 <ele>416</ele>
			<time>2017-11-10T16:17:30Z</time>
			</trkpt>
		
			<trkpt lat="44.561590" lon="8.008780">
			 <ele>415</ele>
			<time>2017-11-10T16:19:30Z</time>
			</trkpt>
		
			<trkpt lat="44.561510" lon="8.008840">
			 <ele>416</ele>
			<time>2017-11-10T16:21:30Z</time>
			</trkpt>
		
			<trkpt lat="44.561430" lon="8.008900">
			 <ele>417</ele>
			<time>2017-11-10T16:23:30Z</time>
			</trkpt>
		
			<trkpt lat="44.561300" lon="8.009070">
			 <ele>419</ele>
			<time>2017-11-10T16:25:30Z</time>
			</trkpt>
		
			<trkpt lat="44.561090" lon="8.009370">
			 <ele>424</ele>
			<time>2017-11-10T16:27:30Z</time>
			</trkpt>
		
			<trkpt lat="44.561020" lon="8.009460">
			 <ele>425</ele>
			<time>2017-11-10T16:29:30Z</time>
			</trkpt>
		
			<trkpt lat="44.560980" lon="8.009540">
			 <ele>426</ele>
			<time>2017-11-10T16:31:30Z</time>
			</trkpt>
		
			<trkpt lat="44.560970" lon="8.009580">
			 <ele>427</ele>
			<time>2017-11-10T16:33:30Z</time>
			</trkpt>
		
			<trkpt lat="44.560960" lon="8.009620">
			 <ele>427</ele>
			<time>2017-11-10T16:35:30Z</time>
			</trkpt>
		
			<trkpt lat="44.560960" lon="8.009700">
			 <ele>428</ele>
			<time>2017-11-10T16:37:30Z</time>
			</trkpt>
		
			<trkpt lat="44.560980" lon="8.009790">
			 <ele>428</ele>
			<time>2017-11-10T16:39:30Z</time>
			</trkpt>
		
			<trkpt lat="44.561000" lon="8.009850">
			 <ele>429</ele>
			<time>2017-11-10T16:41:30Z</time>
			</trkpt>
		
			<trkpt lat="44.561030" lon="8.009910">
			 <ele>429</ele>
			<time>2017-11-10T16:43:30Z</time>
			</trkpt>
		
			<trkpt lat="44.561090" lon="8.009990">
			 <ele>429</ele>
			<time>2017-11-10T16:45:30Z</time>
			</trkpt>
		
			<trkpt lat="44.561220" lon="8.010120">
			 <ele>428</ele>
			<time>2017-11-10T16:47:30Z</time>
			</trkpt>
		
			<trkpt lat="44.561340" lon="8.010250">
			 <ele>426</ele>
			<time>2017-11-10T16:49:30Z</time>
			</trkpt>
		
			<trkpt lat="44.561370" lon="8.010300">
			 <ele>426</ele>
			<time>2017-11-10T16:51:30Z</time>
			</trkpt>
		
			<trkpt lat="44.561390" lon="8.010350">
			 <ele>426</ele>
			<time>2017-11-10T16:53:30Z</time>
			</trkpt>
		
			<trkpt lat="44.561410" lon="8.010390">
			 <ele>426</ele>
			<time>2017-11-10T16:55:30Z</time>
			</trkpt>
		
			<trkpt lat="44.561430" lon="8.010460">
			 <ele>426</ele>
			<time>2017-11-10T16:57:30Z</time>
			</trkpt>
		
			<trkpt lat="44.561440" lon="8.010560">
			 <ele>426</ele>
			<time>2017-11-10T16:59:30Z</time>
			</trkpt>
		
			<trkpt lat="44.561450" lon="8.010690">
			 <ele>426</ele>
			<time>2017-11-10T17:01:30Z</time>
			</trkpt>
		
			<trkpt lat="44.561460" lon="8.010960">
			 <ele>427</ele>
			<time>2017-11-10T17:03:30Z</time>
			</trkpt>
		
			<trkpt lat="44.561460" lon="8.011390">
			 <ele>431</ele>
			<time>2017-11-10T17:05:30Z</time>
			</trkpt>
		
			<trkpt lat="44.561460" lon="8.011640">
			 <ele>433</ele>
			<time>2017-11-10T17:07:30Z</time>
			</trkpt>
		
			<trkpt lat="44.561450" lon="8.011810">
			 <ele>435</ele>
			<time>2017-11-10T17:09:30Z</time>
			</trkpt>
		
			<trkpt lat="44.561430" lon="8.011920">
			 <ele>436</ele>
			<time>2017-11-10T17:11:30Z</time>
			</trkpt>
		
			<trkpt lat="44.561410" lon="8.012050">
			 <ele>438</ele>
			<time>2017-11-10T17:13:30Z</time>
			</trkpt>
		
			<trkpt lat="44.561380" lon="8.012210">
			 <ele>440</ele>
			<time>2017-11-10T17:15:30Z</time>
			</trkpt>
		
			<trkpt lat="44.561350" lon="8.012360">
			 <ele>443</ele>
			<time>2017-11-10T17:17:30Z</time>
			</trkpt>
		
			<trkpt lat="44.561330" lon="8.012540">
			 <ele>445</ele>
			<time>2017-11-10T17:19:30Z</time>
			</trkpt>
		
			<trkpt lat="44.561310" lon="8.012680">
			 <ele>447</ele>
			<time>2017-11-10T17:21:30Z</time>
			</trkpt>
		
			<trkpt lat="44.561290" lon="8.012760">
			 <ele>448</ele>
			<time>2017-11-10T17:23:30Z</time>
			</trkpt>
		
			<trkpt lat="44.561280" lon="8.012780">
			 <ele>448</ele>
			<time>2017-11-10T17:25:30Z</time>
			</trkpt>
		
			<trkpt lat="44.561260" lon="8.012830">
			 <ele>449</ele>
			<time>2017-11-10T17:27:30Z</time>
			</trkpt>
		
			<trkpt lat="44.561240" lon="8.012890">
			 <ele>450</ele>
			<time>2017-11-10T17:29:30Z</time>
			</trkpt>
		
			<trkpt lat="44.561190" lon="8.012990">
			 <ele>453</ele>
			<time>2017-11-10T17:31:30Z</time>
			</trkpt>
		
			<trkpt lat="44.561150" lon="8.013050">
			 <ele>454</ele>
			<time>2017-11-10T17:33:30Z</time>
			</trkpt>
		
			<trkpt lat="44.561140" lon="8.013100">
			 <ele>455</ele>
			<time>2017-11-10T17:35:30Z</time>
			</trkpt>
		
			<trkpt lat="44.561130" lon="8.013160">
			 <ele>456</ele>
			<time>2017-11-10T17:37:30Z</time>
			</trkpt>
		
			<trkpt lat="44.561110" lon="8.013230">
			 <ele>457</ele>
			<time>2017-11-10T17:39:30Z</time>
			</trkpt>
		
			<trkpt lat="44.561110" lon="8.013360">
			 <ele>459</ele>
			<time>2017-11-10T17:41:30Z</time>
			</trkpt>
		
			<trkpt lat="44.561120" lon="8.013690">
			 <ele>461</ele>
			<time>2017-11-10T17:43:30Z</time>
			</trkpt>
		
			<trkpt lat="44.561140" lon="8.013920">
			 <ele>462</ele>
			<time>2017-11-10T17:45:30Z</time>
			</trkpt>
		
			<trkpt lat="44.561170" lon="8.014150">
			 <ele>463</ele>
			<time>2017-11-10T17:47:30Z</time>
			</trkpt>
		
			<trkpt lat="44.561170" lon="8.014310">
			 <ele>464</ele>
			<time>2017-11-10T17:49:30Z</time>
			</trkpt>
		
			<trkpt lat="44.561170" lon="8.014370">
			 <ele>465</ele>
			<time>2017-11-10T17:51:30Z</time>
			</trkpt>
		
			<trkpt lat="44.561160" lon="8.014400">
			 <ele>465</ele>
			<time>2017-11-10T17:53:30Z</time>
			</trkpt>
		
			<trkpt lat="44.561150" lon="8.014430">
			 <ele>466</ele>
			<time>2017-11-10T17:55:30Z</time>
			</trkpt>
		
			<trkpt lat="44.561150" lon="8.014430">
			 <ele>466</ele>
			<time>2017-11-10T17:57:30Z</time>
			</trkpt>
		
			<trkpt lat="44.561130" lon="8.014430">
			 <ele>466</ele>
			<time>2017-11-10T17:59:30Z</time>
			</trkpt>
		
			<trkpt lat="44.561110" lon="8.014430">
			 <ele>467</ele>
			<time>2017-11-10T18:01:30Z</time>
			</trkpt>
		
			<trkpt lat="44.561080" lon="8.014410">
			 <ele>467</ele>
			<time>2017-11-10T18:03:30Z</time>
			</trkpt>
		
			<trkpt lat="44.561020" lon="8.014350">
			 <ele>468</ele>
			<time>2017-11-10T18:05:30Z</time>
			</trkpt>
		
			<trkpt lat="44.560940" lon="8.014280">
			 <ele>470</ele>
			<time>2017-11-10T18:07:30Z</time>
			</trkpt>
		
			<trkpt lat="44.560870" lon="8.014240">
			 <ele>472</ele>
			<time>2017-11-10T18:09:30Z</time>
			</trkpt>
		
			<trkpt lat="44.560800" lon="8.014220">
			 <ele>473</ele>
			<time>2017-11-10T18:11:30Z</time>
			</trkpt>
		
			<trkpt lat="44.560750" lon="8.014210">
			 <ele>473</ele>
			<time>2017-11-10T18:13:30Z</time>
			</trkpt>
		
			<trkpt lat="44.560700" lon="8.014210">
			 <ele>474</ele>
			<time>2017-11-10T18:15:30Z</time>
			</trkpt>
		
			<trkpt lat="44.560630" lon="8.014220">
			 <ele>475</ele>
			<time>2017-11-10T18:17:30Z</time>
			</trkpt>
		
			<trkpt lat="44.560610" lon="8.014220">
			 <ele>475</ele>
			<time>2017-11-10T18:19:30Z</time>
			</trkpt>
		
			<trkpt lat="44.560520" lon="8.014220">
			 <ele>476</ele>
			<time>2017-11-10T18:21:30Z</time>
			</trkpt>
		
			<trkpt lat="44.560460" lon="8.014220">
			 <ele>476</ele>
			<time>2017-11-10T18:23:30Z</time>
			</trkpt>
		
			<trkpt lat="44.560420" lon="8.014220">
			 <ele>477</ele>
			<time>2017-11-10T18:25:30Z</time>
			</trkpt>
		
			<trkpt lat="44.560360" lon="8.014210">
			 <ele>477</ele>
			<time>2017-11-10T18:27:30Z</time>
			</trkpt>
		
			<trkpt lat="44.560230" lon="8.014210">
			 <ele>479</ele>
			<time>2017-11-10T18:29:30Z</time>
			</trkpt>
		
			<trkpt lat="44.560140" lon="8.014210">
			 <ele>480</ele>
			<time>2017-11-10T18:31:30Z</time>
			</trkpt>
		
			<trkpt lat="44.560050" lon="8.014220">
			 <ele>481</ele>
			<time>2017-11-10T18:33:30Z</time>
			</trkpt>
		
			<trkpt lat="44.559940" lon="8.014260">
			 <ele>481</ele>
			<time>2017-11-10T18:35:30Z</time>
			</trkpt>
		
			<trkpt lat="44.559820" lon="8.014300">
			 <ele>481</ele>
			<time>2017-11-10T18:37:30Z</time>
			</trkpt>
		
			<trkpt lat="44.559720" lon="8.014350">
			 <ele>481</ele>
			<time>2017-11-10T18:39:30Z</time>
			</trkpt>
		
			<trkpt lat="44.559630" lon="8.014420">
			 <ele>482</ele>
			<time>2017-11-10T18:41:30Z</time>
			</trkpt>
		
			<trkpt lat="44.559480" lon="8.014610">
			 <ele>484</ele>
			<time>2017-11-10T18:43:30Z</time>
			</trkpt>
		
			<trkpt lat="44.559340" lon="8.014760">
			 <ele>486</ele>
			<time>2017-11-10T18:45:30Z</time>
			</trkpt>
		
			<trkpt lat="44.559200" lon="8.014900">
			 <ele>489</ele>
			<time>2017-11-10T18:47:30Z</time>
			</trkpt>
		
			<trkpt lat="44.559110" lon="8.015000">
			 <ele>491</ele>
			<time>2017-11-10T18:49:30Z</time>
			</trkpt>
		
			<trkpt lat="44.559030" lon="8.015050">
			 <ele>491</ele>
			<time>2017-11-10T18:51:30Z</time>
			</trkpt>
		
			<trkpt lat="44.558850" lon="8.015130">
			 <ele>492</ele>
			<time>2017-11-10T18:53:30Z</time>
			</trkpt>
		
			<trkpt lat="44.558660" lon="8.015220">
			 <ele>493</ele>
			<time>2017-11-10T18:55:30Z</time>
			</trkpt>
		
			<trkpt lat="44.558440" lon="8.015350">
			 <ele>495</ele>
			<time>2017-11-10T18:57:30Z</time>
			</trkpt>
		
			<trkpt lat="44.558320" lon="8.015440">
			 <ele>496</ele>
			<time>2017-11-10T18:59:30Z</time>
			</trkpt>
		
			<trkpt lat="44.558220" lon="8.015540">
			 <ele>499</ele>
			<time>2017-11-10T19:01:30Z</time>
			</trkpt>
		
			<trkpt lat="44.558160" lon="8.015590">
			 <ele>500</ele>
			<time>2017-11-10T19:03:30Z</time>
			</trkpt>
		
			<trkpt lat="44.558110" lon="8.015620">
			 <ele>501</ele>
			<time>2017-11-10T19:05:30Z</time>
			</trkpt>
		
			<trkpt lat="44.558050" lon="8.015630">
			 <ele>501</ele>
			<time>2017-11-10T19:07:30Z</time>
			</trkpt>
		
			<trkpt lat="44.557960" lon="8.015660">
			 <ele>502</ele>
			<time>2017-11-10T19:09:30Z</time>
			</trkpt>
		
			<trkpt lat="44.557710" lon="8.015700">
			 <ele>504</ele>
			<time>2017-11-10T19:11:30Z</time>
			</trkpt>
		
			<trkpt lat="44.557400" lon="8.015770">
			 <ele>508</ele>
			<time>2017-11-10T19:13:30Z</time>
			</trkpt>
		
			<trkpt lat="44.557210" lon="8.015850">
			 <ele>512</ele>
			<time>2017-11-10T19:15:30Z</time>
			</trkpt>
		
			<trkpt lat="44.557140" lon="8.015870">
			 <ele>514</ele>
			<time>2017-11-10T19:17:30Z</time>
			</trkpt>
		
			<trkpt lat="44.557070" lon="8.015900">
			 <ele>516</ele>
			<time>2017-11-10T19:19:30Z</time>
			</trkpt>
		
			<trkpt lat="44.557030" lon="8.015910">
			 <ele>517</ele>
			<time>2017-11-10T19:21:30Z</time>
			</trkpt>
		
			<trkpt lat="44.557000" lon="8.015910">
			 <ele>517</ele>
			<time>2017-11-10T19:23:30Z</time>
			</trkpt>
		
			<trkpt lat="44.556960" lon="8.015910">
			 <ele>518</ele>
			<time>2017-11-10T19:25:30Z</time>
			</trkpt>
		
			<trkpt lat="44.556940" lon="8.015900">
			 <ele>518</ele>
			<time>2017-11-10T19:27:30Z</time>
			</trkpt>
		
			<trkpt lat="44.556910" lon="8.015880">
			 <ele>519</ele>
			<time>2017-11-10T19:29:30Z</time>
			</trkpt>
		
			<trkpt lat="44.556880" lon="8.015850">
			 <ele>519</ele>
			<time>2017-11-10T19:31:30Z</time>
			</trkpt>
		
			<trkpt lat="44.556840" lon="8.015780">
			 <ele>519</ele>
			<time>2017-11-10T19:33:30Z</time>
			</trkpt>
		
			<trkpt lat="44.556700" lon="8.015520">
			 <ele>521</ele>
			<time>2017-11-10T19:35:30Z</time>
			</trkpt>
		
			<trkpt lat="44.556560" lon="8.015230">
			 <ele>524</ele>
			<time>2017-11-10T19:37:30Z</time>
			</trkpt>
		
			<trkpt lat="44.556390" lon="8.014840">
			 <ele>526</ele>
			<time>2017-11-10T19:39:30Z</time>
			</trkpt>
		
			<trkpt lat="44.556300" lon="8.014600">
			 <ele>527</ele>
			<time>2017-11-10T19:41:30Z</time>
			</trkpt>
		
			<trkpt lat="44.556270" lon="8.014530">
			 <ele>527</ele>
			<time>2017-11-10T19:43:30Z</time>
			</trkpt>
		
			<trkpt lat="44.556240" lon="8.014430">
			 <ele>527</ele>
			<time>2017-11-10T19:45:30Z</time>
			</trkpt>
		
			<trkpt lat="44.556190" lon="8.014230">
			 <ele>526</ele>
			<time>2017-11-10T19:47:30Z</time>
			</trkpt>
		
			<trkpt lat="44.556150" lon="8.013990">
			 <ele>526</ele>
			<time>2017-11-10T19:49:30Z</time>
			</trkpt>
		
			<trkpt lat="44.556110" lon="8.013850">
			 <ele>527</ele>
			<time>2017-11-10T19:51:30Z</time>
			</trkpt>
		
			<trkpt lat="44.556070" lon="8.013730">
			 <ele>527</ele>
			<time>2017-11-10T19:53:30Z</time>
			</trkpt>
		
			<trkpt lat="44.556010" lon="8.013540">
			 <ele>528</ele>
			<time>2017-11-10T19:55:30Z</time>
			</trkpt>
		
			<trkpt lat="44.555990" lon="8.013500">
			 <ele>528</ele>
			<time>2017-11-10T19:57:30Z</time>
			</trkpt>
		
			<trkpt lat="44.555980" lon="8.013460">
			 <ele>528</ele>
			<time>2017-11-10T19:59:30Z</time>
			</trkpt>
		
			<trkpt lat="44.555980" lon="8.013420">
			 <ele>528</ele>
			<time>2017-11-10T20:01:30Z</time>
			</trkpt>
		
			<trkpt lat="44.555980" lon="8.013360">
			 <ele>528</ele>
			<time>2017-11-10T20:03:30Z</time>
			</trkpt>
		
			<trkpt lat="44.555990" lon="8.013290">
			 <ele>528</ele>
			<time>2017-11-10T20:05:30Z</time>
			</trkpt>
		
			<trkpt lat="44.556010" lon="8.013240">
			 <ele>528</ele>
			<time>2017-11-10T20:07:30Z</time>
			</trkpt>
		
			<trkpt lat="44.556040" lon="8.013140">
			 <ele>529</ele>
			<time>2017-11-10T20:09:30Z</time>
			</trkpt>
		
			<trkpt lat="44.556100" lon="8.013060">
			 <ele>528</ele>
			<time>2017-11-10T20:11:30Z</time>
			</trkpt>
		
			<trkpt lat="44.556230" lon="8.012900">
			 <ele>528</ele>
			<time>2017-11-10T20:13:30Z</time>
			</trkpt>
		
			<trkpt lat="44.556510" lon="8.012640">
			 <ele>526</ele>
			<time>2017-11-10T20:15:30Z</time>
			</trkpt>
		
			<trkpt lat="44.556720" lon="8.012490">
			 <ele>524</ele>
			<time>2017-11-10T20:17:30Z</time>
			</trkpt>
		
			<trkpt lat="44.556900" lon="8.012390">
			 <ele>520</ele>
			<time>2017-11-10T20:19:30Z</time>
			</trkpt>
		
			<trkpt lat="44.556960" lon="8.012350">
			 <ele>519</ele>
			<time>2017-11-10T20:21:30Z</time>
			</trkpt>
		
			<trkpt lat="44.556980" lon="8.012320">
			 <ele>519</ele>
			<time>2017-11-10T20:23:30Z</time>
			</trkpt>
		
			<trkpt lat="44.556980" lon="8.012300">
			 <ele>519</ele>
			<time>2017-11-10T20:25:30Z</time>
			</trkpt>
		
			<trkpt lat="44.556990" lon="8.012270">
			 <ele>519</ele>
			<time>2017-11-10T20:27:30Z</time>
			</trkpt>
		
			<trkpt lat="44.556980" lon="8.012230">
			 <ele>519</ele>
			<time>2017-11-10T20:29:30Z</time>
			</trkpt>
		
			<trkpt lat="44.556970" lon="8.012190">
			 <ele>519</ele>
			<time>2017-11-10T20:31:30Z</time>
			</trkpt>
		
			<trkpt lat="44.556930" lon="8.012110">
			 <ele>520</ele>
			<time>2017-11-10T20:33:30Z</time>
			</trkpt>
		
			<trkpt lat="44.556850" lon="8.011990">
			 <ele>523</ele>
			<time>2017-11-10T20:35:30Z</time>
			</trkpt>
		
			<trkpt lat="44.556820" lon="8.011950">
			 <ele>523</ele>
			<time>2017-11-10T20:37:30Z</time>
			</trkpt>
		
			<trkpt lat="44.556790" lon="8.011930">
			 <ele>524</ele>
			<time>2017-11-10T20:39:30Z</time>
			</trkpt>
		
			<trkpt lat="44.556750" lon="8.011920">
			 <ele>525</ele>
			<time>2017-11-10T20:41:30Z</time>
			</trkpt>
		
			<trkpt lat="44.556710" lon="8.011920">
			 <ele>526</ele>
			<time>2017-11-10T20:43:30Z</time>
			</trkpt>
		
			<trkpt lat="44.556660" lon="8.011930">
			 <ele>527</ele>
			<time>2017-11-10T20:45:30Z</time>
			</trkpt>
		
			<trkpt lat="44.556560" lon="8.011960">
			 <ele>528</ele>
			<time>2017-11-10T20:47:30Z</time>
			</trkpt>
		
			<trkpt lat="44.556440" lon="8.012010">
			 <ele>529</ele>
			<time>2017-11-10T20:49:30Z</time>
			</trkpt>
		
			<trkpt lat="44.556230" lon="8.012080">
			 <ele>531</ele>
			<time>2017-11-10T20:51:30Z</time>
			</trkpt>
		
			<trkpt lat="44.556010" lon="8.012150">
			 <ele>534</ele>
			<time>2017-11-10T20:53:30Z</time>
			</trkpt>
		
			<trkpt lat="44.555690" lon="8.012250">
			 <ele>539</ele>
			<time>2017-11-10T20:55:30Z</time>
			</trkpt>
		
			<trkpt lat="44.555630" lon="8.012270">
			 <ele>540</ele>
			<time>2017-11-10T20:57:30Z</time>
			</trkpt>
		
			<trkpt lat="44.555590" lon="8.012280">
			 <ele>541</ele>
			<time>2017-11-10T20:59:30Z</time>
			</trkpt>
		
			<trkpt lat="44.555550" lon="8.012310">
			 <ele>542</ele>
			<time>2017-11-10T21:01:30Z</time>
			</trkpt>
		
			<trkpt lat="44.555510" lon="8.012330">
			 <ele>543</ele>
			<time>2017-11-10T21:03:30Z</time>
			</trkpt>
		
			<trkpt lat="44.555470" lon="8.012370">
			 <ele>544</ele>
			<time>2017-11-10T21:05:30Z</time>
			</trkpt>
		
			<trkpt lat="44.555330" lon="8.012540">
			 <ele>548</ele>
			<time>2017-11-10T21:07:30Z</time>
			</trkpt>
		
			<trkpt lat="44.555190" lon="8.012730">
			 <ele>550</ele>
			<time>2017-11-10T21:09:30Z</time>
			</trkpt>
		
			<trkpt lat="44.555090" lon="8.012860">
			 <ele>552</ele>
			<time>2017-11-10T21:11:30Z</time>
			</trkpt>
		
			<trkpt lat="44.555000" lon="8.012970">
			 <ele>555</ele>
			<time>2017-11-10T21:13:30Z</time>
			</trkpt>
		
			<trkpt lat="44.554990" lon="8.012980">
			 <ele>555</ele>
			<time>2017-11-10T21:15:30Z</time>
			</trkpt>
		
			<trkpt lat="44.554870" lon="8.013100">
			 <ele>557</ele>
			<time>2017-11-10T21:17:30Z</time>
			</trkpt>
		
			<trkpt lat="44.554790" lon="8.013180">
			 <ele>559</ele>
			<time>2017-11-10T21:19:30Z</time>
			</trkpt>
		
			<trkpt lat="44.554710" lon="8.013270">
			 <ele>560</ele>
			<time>2017-11-10T21:21:30Z</time>
			</trkpt>
		
			<trkpt lat="44.554640" lon="8.013360">
			 <ele>562</ele>
			<time>2017-11-10T21:23:30Z</time>
			</trkpt>
		
			<trkpt lat="44.554600" lon="8.013410">
			 <ele>563</ele>
			<time>2017-11-10T21:25:30Z</time>
			</trkpt>
		
			<trkpt lat="44.554460" lon="8.013590">
			 <ele>565</ele>
			<time>2017-11-10T21:27:30Z</time>
			</trkpt>
		
			<trkpt lat="44.554320" lon="8.013750">
			 <ele>569</ele>
			<time>2017-11-10T21:29:30Z</time>
			</trkpt>
		
			<trkpt lat="44.554270" lon="8.013800">
			 <ele>570</ele>
			<time>2017-11-10T21:31:30Z</time>
			</trkpt>
		
			<trkpt lat="44.554230" lon="8.013870">
			 <ele>571</ele>
			<time>2017-11-10T21:33:30Z</time>
			</trkpt>
		
			<trkpt lat="44.554200" lon="8.013950">
			 <ele>572</ele>
			<time>2017-11-10T21:35:30Z</time>
			</trkpt>
		
			<trkpt lat="44.554160" lon="8.014040">
			 <ele>573</ele>
			<time>2017-11-10T21:37:30Z</time>
			</trkpt>
		
			<trkpt lat="44.554130" lon="8.014140">
			 <ele>574</ele>
			<time>2017-11-10T21:39:30Z</time>
			</trkpt>
		
			<trkpt lat="44.554100" lon="8.014250">
			 <ele>574</ele>
			<time>2017-11-10T21:41:30Z</time>
			</trkpt>
		
			<trkpt lat="44.554060" lon="8.014500">
			 <ele>575</ele>
			<time>2017-11-10T21:43:30Z</time>
			</trkpt>
		
			<trkpt lat="44.554000" lon="8.014740">
			 <ele>576</ele>
			<time>2017-11-10T21:45:30Z</time>
			</trkpt>
		
			<trkpt lat="44.553930" lon="8.014940">
			 <ele>578</ele>
			<time>2017-11-10T21:47:30Z</time>
			</trkpt>
		
			<trkpt lat="44.553880" lon="8.015170">
			 <ele>580</ele>
			<time>2017-11-10T21:49:30Z</time>
			</trkpt>
		
			<trkpt lat="44.553850" lon="8.015330">
			 <ele>580</ele>
			<time>2017-11-10T21:51:30Z</time>
			</trkpt>
		
			<trkpt lat="44.553820" lon="8.015450">
			 <ele>581</ele>
			<time>2017-11-10T21:53:30Z</time>
			</trkpt>
		
			<trkpt lat="44.553800" lon="8.015520">
			 <ele>582</ele>
			<time>2017-11-10T21:55:30Z</time>
			</trkpt>
		
			<trkpt lat="44.553780" lon="8.015580">
			 <ele>582</ele>
			<time>2017-11-10T21:57:30Z</time>
			</trkpt>
		
			<trkpt lat="44.553740" lon="8.015660">
			 <ele>583</ele>
			<time>2017-11-10T21:59:30Z</time>
			</trkpt>
		
			<trkpt lat="44.553640" lon="8.015830">
			 <ele>586</ele>
			<time>2017-11-10T22:01:30Z</time>
			</trkpt>
		
			<trkpt lat="44.553530" lon="8.016020">
			 <ele>590</ele>
			<time>2017-11-10T22:03:30Z</time>
			</trkpt>
		
			<trkpt lat="44.553480" lon="8.016140">
			 <ele>591</ele>
			<time>2017-11-10T22:05:30Z</time>
			</trkpt>
		
			<trkpt lat="44.553450" lon="8.016250">
			 <ele>592</ele>
			<time>2017-11-10T22:07:30Z</time>
			</trkpt>
		
			<trkpt lat="44.553420" lon="8.016380">
			 <ele>593</ele>
			<time>2017-11-10T22:09:30Z</time>
			</trkpt>
		
			<trkpt lat="44.553420" lon="8.016490">
			 <ele>593</ele>
			<time>2017-11-10T22:11:30Z</time>
			</trkpt>
		
			<trkpt lat="44.553410" lon="8.016680">
			 <ele>593</ele>
			<time>2017-11-10T22:13:30Z</time>
			</trkpt>
		
			<trkpt lat="44.553400" lon="8.016840">
			 <ele>593</ele>
			<time>2017-11-10T22:15:30Z</time>
			</trkpt>
		
			<trkpt lat="44.553380" lon="8.017010">
			 <ele>593</ele>
			<time>2017-11-10T22:17:30Z</time>
			</trkpt>
		
			<trkpt lat="44.553340" lon="8.017250">
			 <ele>593</ele>
			<time>2017-11-10T22:19:30Z</time>
			</trkpt>
		
			<trkpt lat="44.553300" lon="8.017480">
			 <ele>593</ele>
			<time>2017-11-10T22:21:30Z</time>
			</trkpt>
		
			<trkpt lat="44.553270" lon="8.017680">
			 <ele>593</ele>
			<time>2017-11-10T22:23:30Z</time>
			</trkpt>
		
			<trkpt lat="44.553230" lon="8.017830">
			 <ele>593</ele>
			<time>2017-11-10T22:25:30Z</time>
			</trkpt>
		
			<trkpt lat="44.553200" lon="8.017880">
			 <ele>593</ele>
			<time>2017-11-10T22:27:30Z</time>
			</trkpt>
		
			<trkpt lat="44.553160" lon="8.017920">
			 <ele>592</ele>
			<time>2017-11-10T22:29:30Z</time>
			</trkpt>
		
			<trkpt lat="44.553160" lon="8.017930">
			 <ele>592</ele>
			<time>2017-11-10T22:31:30Z</time>
			</trkpt>
		
			<trkpt lat="44.553160" lon="8.018410">
			 <ele>594</ele>
			<time>2017-11-10T22:33:30Z</time>
			</trkpt>
		
			<trkpt lat="44.553170" lon="8.018580">
			 <ele>595</ele>
			<time>2017-11-10T22:35:30Z</time>
			</trkpt>
		
			<trkpt lat="44.553180" lon="8.018690">
			 <ele>596</ele>
			<time>2017-11-10T22:37:30Z</time>
			</trkpt>
		
			<trkpt lat="44.553250" lon="8.019150">
			 <ele>600</ele>
			<time>2017-11-10T22:39:30Z</time>
			</trkpt>
		
			<trkpt lat="44.553280" lon="8.019320">
			 <ele>601</ele>
			<time>2017-11-10T22:41:30Z</time>
			</trkpt>
		
			<trkpt lat="44.553280" lon="8.019400">
			 <ele>602</ele>
			<time>2017-11-10T22:43:30Z</time>
			</trkpt>
		
			<trkpt lat="44.553280" lon="8.019450">
			 <ele>602</ele>
			<time>2017-11-10T22:45:30Z</time>
			</trkpt>
		
			<trkpt lat="44.553270" lon="8.019550">
			 <ele>603</ele>
			<time>2017-11-10T22:47:30Z</time>
			</trkpt>
		
			<trkpt lat="44.553230" lon="8.019680">
			 <ele>602</ele>
			<time>2017-11-10T22:49:30Z</time>
			</trkpt>
		
			<trkpt lat="44.553200" lon="8.019840">
			 <ele>602</ele>
			<time>2017-11-10T22:51:30Z</time>
			</trkpt>
		
			<trkpt lat="44.553180" lon="8.019930">
			 <ele>602</ele>
			<time>2017-11-10T22:53:30Z</time>
			</trkpt>
		
			<trkpt lat="44.553180" lon="8.019930">
			 <ele>602</ele>
			<time>2017-11-10T22:55:30Z</time>
			</trkpt>
		
			<trkpt lat="44.553170" lon="8.019950">
			 <ele>602</ele>
			<time>2017-11-10T22:57:30Z</time>
			</trkpt>
		
			<trkpt lat="44.553160" lon="8.020030">
			 <ele>602</ele>
			<time>2017-11-10T22:59:30Z</time>
			</trkpt>
		
			<trkpt lat="44.553150" lon="8.020100">
			 <ele>602</ele>
			<time>2017-11-10T23:01:30Z</time>
			</trkpt>
		
			<trkpt lat="44.553150" lon="8.020280">
			 <ele>603</ele>
			<time>2017-11-10T23:03:30Z</time>
			</trkpt>
		
			<trkpt lat="44.553170" lon="8.020430">
			 <ele>604</ele>
			<time>2017-11-10T23:05:30Z</time>
			</trkpt>
		
			<trkpt lat="44.553180" lon="8.020530">
			 <ele>604</ele>
			<time>2017-11-10T23:07:30Z</time>
			</trkpt>
		
			<trkpt lat="44.553180" lon="8.020650">
			 <ele>605</ele>
			<time>2017-11-10T23:09:30Z</time>
			</trkpt>
		
			<trkpt lat="44.553170" lon="8.020860">
			 <ele>605</ele>
			<time>2017-11-10T23:11:30Z</time>
			</trkpt>
		
			<trkpt lat="44.553130" lon="8.021130">
			 <ele>606</ele>
			<time>2017-11-10T23:13:30Z</time>
			</trkpt>
		
			<trkpt lat="44.553100" lon="8.021290">
			 <ele>605</ele>
			<time>2017-11-10T23:15:30Z</time>
			</trkpt>
		
			<trkpt lat="44.553090" lon="8.021370">
			 <ele>606</ele>
			<time>2017-11-10T23:17:30Z</time>
			</trkpt>
		
			<trkpt lat="44.553090" lon="8.021420">
			 <ele>606</ele>
			<time>2017-11-10T23:19:30Z</time>
			</trkpt>
		
			<trkpt lat="44.553090" lon="8.021480">
			 <ele>606</ele>
			<time>2017-11-10T23:21:30Z</time>
			</trkpt>
		
			<trkpt lat="44.553100" lon="8.021530">
			 <ele>607</ele>
			<time>2017-11-10T23:23:30Z</time>
			</trkpt>
		
			<trkpt lat="44.553110" lon="8.021620">
			 <ele>607</ele>
			<time>2017-11-10T23:25:30Z</time>
			</trkpt>
		
			<trkpt lat="44.553150" lon="8.021790">
			 <ele>609</ele>
			<time>2017-11-10T23:27:30Z</time>
			</trkpt>
		
			<trkpt lat="44.553230" lon="8.022050">
			 <ele>613</ele>
			<time>2017-11-10T23:29:30Z</time>
			</trkpt>
		
			<trkpt lat="44.553250" lon="8.022220">
			 <ele>614</ele>
			<time>2017-11-10T23:31:30Z</time>
			</trkpt>
		
			<trkpt lat="44.553250" lon="8.022320">
			 <ele>614</ele>
			<time>2017-11-10T23:33:30Z</time>
			</trkpt>
		
			<trkpt lat="44.553230" lon="8.022510">
			 <ele>614</ele>
			<time>2017-11-10T23:35:30Z</time>
			</trkpt>
		
			<trkpt lat="44.553210" lon="8.022630">
			 <ele>614</ele>
			<time>2017-11-10T23:37:30Z</time>
			</trkpt>
		
			<trkpt lat="44.553210" lon="8.022680">
			 <ele>614</ele>
			<time>2017-11-10T23:39:30Z</time>
			</trkpt>
		
			<trkpt lat="44.553200" lon="8.022780">
			 <ele>614</ele>
			<time>2017-11-10T23:41:30Z</time>
			</trkpt>
		
			<trkpt lat="44.553200" lon="8.022890">
			 <ele>615</ele>
			<time>2017-11-10T23:43:30Z</time>
			</trkpt>
		
			<trkpt lat="44.553230" lon="8.023030">
			 <ele>616</ele>
			<time>2017-11-10T23:45:30Z</time>
			</trkpt>
		
			<trkpt lat="44.553270" lon="8.023200">
			 <ele>618</ele>
			<time>2017-11-10T23:47:30Z</time>
			</trkpt>
		
			<trkpt lat="44.553280" lon="8.023370">
			 <ele>619</ele>
			<time>2017-11-10T23:49:30Z</time>
			</trkpt>
		
			<trkpt lat="44.553290" lon="8.023450">
			 <ele>620</ele>
			<time>2017-11-10T23:51:30Z</time>
			</trkpt>
		
			<trkpt lat="44.553280" lon="8.023570">
			 <ele>620</ele>
			<time>2017-11-10T23:53:30Z</time>
			</trkpt>
		
			<trkpt lat="44.553250" lon="8.023730">
			 <ele>620</ele>
			<time>2017-11-10T23:55:30Z</time>
			</trkpt>
		
			<trkpt lat="44.553190" lon="8.023960">
			 <ele>619</ele>
			<time>2017-11-10T23:57:30Z</time>
			</trkpt>
		
			<trkpt lat="44.553110" lon="8.024180">
			 <ele>617</ele>
			<time>2017-11-10T23:59:30Z</time>
			</trkpt>
		
			<trkpt lat="44.553060" lon="8.024340">
			 <ele>616</ele>
			<time>2017-11-11T00:01:30Z</time>
			</trkpt>
		
			<trkpt lat="44.553030" lon="8.024440">
			 <ele>615</ele>
			<time>2017-11-11T00:03:30Z</time>
			</trkpt>
		
			<trkpt lat="44.553020" lon="8.024500">
			 <ele>614</ele>
			<time>2017-11-11T00:05:30Z</time>
			</trkpt>
		
			<trkpt lat="44.553020" lon="8.024540">
			 <ele>614</ele>
			<time>2017-11-11T00:07:30Z</time>
			</trkpt>
		
			<trkpt lat="44.553020" lon="8.024590">
			 <ele>614</ele>
			<time>2017-11-11T00:09:30Z</time>
			</trkpt>
		
			<trkpt lat="44.553030" lon="8.024700">
			 <ele>614</ele>
			<time>2017-11-11T00:11:30Z</time>
			</trkpt>
		
			<trkpt lat="44.553150" lon="8.025780">
			 <ele>615</ele>
			<time>2017-11-11T00:13:30Z</time>
			</trkpt>
		
			<trkpt lat="44.553150" lon="8.025900">
			 <ele>615</ele>
			<time>2017-11-11T00:15:30Z</time>
			</trkpt>
		
			<trkpt lat="44.553140" lon="8.026050">
			 <ele>615</ele>
			<time>2017-11-11T00:17:30Z</time>
			</trkpt>
		
			<trkpt lat="44.553120" lon="8.026160">
			 <ele>615</ele>
			<time>2017-11-11T00:19:30Z</time>
			</trkpt>
		
			<trkpt lat="44.553090" lon="8.026240">
			 <ele>614</ele>
			<time>2017-11-11T00:21:30Z</time>
			</trkpt>
		
			<trkpt lat="44.553030" lon="8.026330">
			 <ele>612</ele>
			<time>2017-11-11T00:23:30Z</time>
			</trkpt>
		
			<trkpt lat="44.552970" lon="8.026400">
			 <ele>611</ele>
			<time>2017-11-11T00:25:30Z</time>
			</trkpt>
		
			<trkpt lat="44.552900" lon="8.026470">
			 <ele>609</ele>
			<time>2017-11-11T00:27:30Z</time>
			</trkpt>
		
			<trkpt lat="44.552830" lon="8.026550">
			 <ele>608</ele>
			<time>2017-11-11T00:29:30Z</time>
			</trkpt>
		
			<trkpt lat="44.552810" lon="8.026600">
			 <ele>607</ele>
			<time>2017-11-11T00:31:30Z</time>
			</trkpt>
		
			<trkpt lat="44.552800" lon="8.026650">
			 <ele>607</ele>
			<time>2017-11-11T00:33:30Z</time>
			</trkpt>
		
			<trkpt lat="44.552800" lon="8.026710">
			 <ele>606</ele>
			<time>2017-11-11T00:35:30Z</time>
			</trkpt>
		
			<trkpt lat="44.552810" lon="8.026770">
			 <ele>606</ele>
			<time>2017-11-11T00:37:30Z</time>
			</trkpt>
		
			<trkpt lat="44.552850" lon="8.026860">
			 <ele>605</ele>
			<time>2017-11-11T00:39:30Z</time>
			</trkpt>
		
			<trkpt lat="44.553250" lon="8.027590">
			 <ele>608</ele>
			<time>2017-11-11T00:41:30Z</time>
			</trkpt>
		
			<trkpt lat="44.553520" lon="8.028140">
			 <ele>609</ele>
			<time>2017-11-11T00:43:30Z</time>
			</trkpt>
		
			<trkpt lat="44.553640" lon="8.028520">
			 <ele>608</ele>
			<time>2017-11-11T00:45:30Z</time>
			</trkpt>
		
			<trkpt lat="44.553820" lon="8.029170">
			 <ele>608</ele>
			<time>2017-11-11T00:47:30Z</time>
			</trkpt>
		
			<trkpt lat="44.553880" lon="8.029420">
			 <ele>609</ele>
			<time>2017-11-11T00:49:30Z</time>
			</trkpt>
		
			<trkpt lat="44.553890" lon="8.029520">
			 <ele>609</ele>
			<time>2017-11-11T00:51:30Z</time>
			</trkpt>
		
			<trkpt lat="44.553880" lon="8.029630">
			 <ele>608</ele>
			<time>2017-11-11T00:53:30Z</time>
			</trkpt>
		
			<trkpt lat="44.553830" lon="8.029960">
			 <ele>603</ele>
			<time>2017-11-11T00:55:30Z</time>
			</trkpt>
		
			<trkpt lat="44.553820" lon="8.030070">
			 <ele>602</ele>
			<time>2017-11-11T00:57:30Z</time>
			</trkpt>
		
			<trkpt lat="44.553820" lon="8.030160">
			 <ele>602</ele>
			<time>2017-11-11T00:59:30Z</time>
			</trkpt>
		
			<trkpt lat="44.553840" lon="8.030270">
			 <ele>602</ele>
			<time>2017-11-11T01:01:30Z</time>
			</trkpt>
		
			<trkpt lat="44.553980" lon="8.030780">
			 <ele>606</ele>
			<time>2017-11-11T01:03:30Z</time>
			</trkpt>
		
			<trkpt lat="44.554340" lon="8.032110">
			 <ele>608</ele>
			<time>2017-11-11T01:05:30Z</time>
			</trkpt>
		
			<trkpt lat="44.554370" lon="8.032250">
			 <ele>608</ele>
			<time>2017-11-11T01:07:30Z</time>
			</trkpt>
		
			<trkpt lat="44.554390" lon="8.032470">
			 <ele>607</ele>
			<time>2017-11-11T01:09:30Z</time>
			</trkpt>
		
			<trkpt lat="44.554390" lon="8.033070">
			 <ele>604</ele>
			<time>2017-11-11T01:11:30Z</time>
			</trkpt>
		
			<trkpt lat="44.554420" lon="8.033500">
			 <ele>603</ele>
			<time>2017-11-11T01:13:30Z</time>
			</trkpt>
		
			<trkpt lat="44.554450" lon="8.033810">
			 <ele>602</ele>
			<time>2017-11-11T01:15:30Z</time>
			</trkpt>
		
			<trkpt lat="44.554450" lon="8.033990">
			 <ele>602</ele>
			<time>2017-11-11T01:17:30Z</time>
			</trkpt>
		
			<trkpt lat="44.554450" lon="8.034090">
			 <ele>601</ele>
			<time>2017-11-11T01:19:30Z</time>
			</trkpt>
		
			<trkpt lat="44.554420" lon="8.034260">
			 <ele>601</ele>
			<time>2017-11-11T01:21:30Z</time>
			</trkpt>
		
			<trkpt lat="44.554130" lon="8.035670">
			 <ele>604</ele>
			<time>2017-11-11T01:23:30Z</time>
			</trkpt>
		
			<trkpt lat="44.554000" lon="8.036430">
			 <ele>600</ele>
			<time>2017-11-11T01:25:30Z</time>
			</trkpt>
		
			<trkpt lat="44.553770" lon="8.037560">
			 <ele>599</ele>
			<time>2017-11-11T01:27:30Z</time>
			</trkpt>
		
			<trkpt lat="44.553680" lon="8.037930">
			 <ele>599</ele>
			<time>2017-11-11T01:29:30Z</time>
			</trkpt>
		
			<trkpt lat="44.553630" lon="8.038130">
			 <ele>600</ele>
			<time>2017-11-11T01:31:30Z</time>
			</trkpt>
		
			<trkpt lat="44.553610" lon="8.038370">
			 <ele>601</ele>
			<time>2017-11-11T01:33:30Z</time>
			</trkpt>
		
			<trkpt lat="44.553600" lon="8.038520">
			 <ele>602</ele>
			<time>2017-11-11T01:35:30Z</time>
			</trkpt>
		
			<trkpt lat="44.553580" lon="8.038810">
			 <ele>603</ele>
			<time>2017-11-11T01:37:30Z</time>
			</trkpt>
		
			<trkpt lat="44.553580" lon="8.039100">
			 <ele>604</ele>
			<time>2017-11-11T01:39:30Z</time>
			</trkpt>
		
			<trkpt lat="44.553570" lon="8.039270">
			 <ele>604</ele>
			<time>2017-11-11T01:41:30Z</time>
			</trkpt>
		
			<trkpt lat="44.553520" lon="8.039460">
			 <ele>604</ele>
			<time>2017-11-11T01:43:30Z</time>
			</trkpt>
		
			<trkpt lat="44.553490" lon="8.039540">
			 <ele>604</ele>
			<time>2017-11-11T01:45:30Z</time>
			</trkpt>
		
			<trkpt lat="44.553480" lon="8.039640">
			 <ele>604</ele>
			<time>2017-11-11T01:47:30Z</time>
			</trkpt>
		
			<trkpt lat="44.553460" lon="8.039740">
			 <ele>604</ele>
			<time>2017-11-11T01:49:30Z</time>
			</trkpt>
		
			<trkpt lat="44.553450" lon="8.039860">
			 <ele>604</ele>
			<time>2017-11-11T01:51:30Z</time>
			</trkpt>
		
			<trkpt lat="44.553450" lon="8.040010">
			 <ele>604</ele>
			<time>2017-11-11T01:53:30Z</time>
			</trkpt>
		
			<trkpt lat="44.553460" lon="8.040280">
			 <ele>603</ele>
			<time>2017-11-11T01:55:30Z</time>
			</trkpt>
		
			<trkpt lat="44.553460" lon="8.040410">
			 <ele>603</ele>
			<time>2017-11-11T01:57:30Z</time>
			</trkpt>
		
			<trkpt lat="44.553470" lon="8.040570">
			 <ele>603</ele>
			<time>2017-11-11T01:59:30Z</time>
			</trkpt>
		
			<trkpt lat="44.553460" lon="8.040760">
			 <ele>603</ele>
			<time>2017-11-11T02:01:30Z</time>
			</trkpt>
		
			<trkpt lat="44.553450" lon="8.040920">
			 <ele>603</ele>
			<time>2017-11-11T02:03:30Z</time>
			</trkpt>
		
			<trkpt lat="44.553390" lon="8.041270">
			 <ele>605</ele>
			<time>2017-11-11T02:05:30Z</time>
			</trkpt>
		
			<trkpt lat="44.553330" lon="8.041750">
			 <ele>609</ele>
			<time>2017-11-11T02:07:30Z</time>
			</trkpt>
		
			<trkpt lat="44.553300" lon="8.041940">
			 <ele>611</ele>
			<time>2017-11-11T02:09:30Z</time>
			</trkpt>
		
			<trkpt lat="44.553290" lon="8.042020">
			 <ele>612</ele>
			<time>2017-11-11T02:11:30Z</time>
			</trkpt>
		
			<trkpt lat="44.553280" lon="8.042090">
			 <ele>613</ele>
			<time>2017-11-11T02:13:30Z</time>
			</trkpt>
		
			<trkpt lat="44.553260" lon="8.042130">
			 <ele>613</ele>
			<time>2017-11-11T02:15:30Z</time>
			</trkpt>
		
			<trkpt lat="44.553260" lon="8.042130">
			 <ele>613</ele>
			<time>2017-11-11T02:17:30Z</time>
			</trkpt>
		
			<trkpt lat="44.553230" lon="8.042160">
			 <ele>613</ele>
			<time>2017-11-11T02:19:30Z</time>
			</trkpt>
		
			<trkpt lat="44.553180" lon="8.042210">
			 <ele>613</ele>
			<time>2017-11-11T02:21:30Z</time>
			</trkpt>
		
			<trkpt lat="44.553080" lon="8.042290">
			 <ele>614</ele>
			<time>2017-11-11T02:23:30Z</time>
			</trkpt>
		
			<trkpt lat="44.552930" lon="8.042410">
			 <ele>615</ele>
			<time>2017-11-11T02:25:30Z</time>
			</trkpt>
		
			<trkpt lat="44.552820" lon="8.042520">
			 <ele>616</ele>
			<time>2017-11-11T02:27:30Z</time>
			</trkpt>
		
			<trkpt lat="44.552700" lon="8.042660">
			 <ele>617</ele>
			<time>2017-11-11T02:29:30Z</time>
			</trkpt>
		
			<trkpt lat="44.552570" lon="8.042860">
			 <ele>620</ele>
			<time>2017-11-11T02:31:30Z</time>
			</trkpt>
		
			<trkpt lat="44.552460" lon="8.043060">
			 <ele>622</ele>
			<time>2017-11-11T02:33:30Z</time>
			</trkpt>
		
			<trkpt lat="44.552370" lon="8.043250">
			 <ele>623</ele>
			<time>2017-11-11T02:35:30Z</time>
			</trkpt>
		
			<trkpt lat="44.552230" lon="8.043540">
			 <ele>625</ele>
			<time>2017-11-11T02:37:30Z</time>
			</trkpt>
		
			<trkpt lat="44.552030" lon="8.043950">
			 <ele>628</ele>
			<time>2017-11-11T02:39:30Z</time>
			</trkpt>
		
			<trkpt lat="44.551740" lon="8.044530">
			 <ele>632</ele>
			<time>2017-11-11T02:41:30Z</time>
			</trkpt>
		
			<trkpt lat="44.551700" lon="8.044600">
			 <ele>633</ele>
			<time>2017-11-11T02:43:30Z</time>
			</trkpt>
		
			<trkpt lat="44.551650" lon="8.044660">
			 <ele>633</ele>
			<time>2017-11-11T02:45:30Z</time>
			</trkpt>
		
			<trkpt lat="44.551540" lon="8.044800">
			 <ele>633</ele>
			<time>2017-11-11T02:47:30Z</time>
			</trkpt>
		
			<trkpt lat="44.551350" lon="8.044970">
			 <ele>633</ele>
			<time>2017-11-11T02:49:30Z</time>
			</trkpt>
		
			<trkpt lat="44.551130" lon="8.045100">
			 <ele>632</ele>
			<time>2017-11-11T02:51:30Z</time>
			</trkpt>
		
			<trkpt lat="44.551000" lon="8.045150">
			 <ele>631</ele>
			<time>2017-11-11T02:53:30Z</time>
			</trkpt>
		
			<trkpt lat="44.550590" lon="8.045290">
			 <ele>628</ele>
			<time>2017-11-11T02:55:30Z</time>
			</trkpt>
		
			<trkpt lat="44.550540" lon="8.045310">
			 <ele>628</ele>
			<time>2017-11-11T02:57:30Z</time>
			</trkpt>
		
			<trkpt lat="44.550430" lon="8.045360">
			 <ele>627</ele>
			<time>2017-11-11T02:59:30Z</time>
			</trkpt>
		
			<trkpt lat="44.550330" lon="8.045430">
			 <ele>628</ele>
			<time>2017-11-11T03:01:30Z</time>
			</trkpt>
		
			<trkpt lat="44.550110" lon="8.045650">
			 <ele>630</ele>
			<time>2017-11-11T03:03:30Z</time>
			</trkpt>
		
			<trkpt lat="44.550050" lon="8.045720">
			 <ele>630</ele>
			<time>2017-11-11T03:05:30Z</time>
			</trkpt>
		
			<trkpt lat="44.549810" lon="8.045970">
			 <ele>632</ele>
			<time>2017-11-11T03:07:30Z</time>
			</trkpt>
		
			<trkpt lat="44.549760" lon="8.046020">
			 <ele>632</ele>
			<time>2017-11-11T03:09:30Z</time>
			</trkpt>
		
			<trkpt lat="44.549480" lon="8.046380">
			 <ele>634</ele>
			<time>2017-11-11T03:11:30Z</time>
			</trkpt>
		
			<trkpt lat="44.549200" lon="8.046860">
			 <ele>637</ele>
			<time>2017-11-11T03:13:30Z</time>
			</trkpt>
		
			<trkpt lat="44.548720" lon="8.047570">
			 <ele>641</ele>
			<time>2017-11-11T03:15:30Z</time>
			</trkpt>
		
			<trkpt lat="44.548580" lon="8.047760">
			 <ele>642</ele>
			<time>2017-11-11T03:17:30Z</time>
			</trkpt>
		
			<trkpt lat="44.548420" lon="8.048150">
			 <ele>645</ele>
			<time>2017-11-11T03:19:30Z</time>
			</trkpt>
		
			<trkpt lat="44.548280" lon="8.048580">
			 <ele>648</ele>
			<time>2017-11-11T03:21:30Z</time>
			</trkpt>
		
			<trkpt lat="44.548090" lon="8.049190">
			 <ele>651</ele>
			<time>2017-11-11T03:23:30Z</time>
			</trkpt>
		
			<trkpt lat="44.547920" lon="8.049990">
			 <ele>657</ele>
			<time>2017-11-11T03:25:30Z</time>
			</trkpt>
		
			<trkpt lat="44.547880" lon="8.050210">
			 <ele>659</ele>
			<time>2017-11-11T03:27:30Z</time>
			</trkpt>
		
			<trkpt lat="44.547850" lon="8.050330">
			 <ele>660</ele>
			<time>2017-11-11T03:29:30Z</time>
			</trkpt>
		
			<trkpt lat="44.547780" lon="8.050520">
			 <ele>661</ele>
			<time>2017-11-11T03:31:30Z</time>
			</trkpt>
		
			<trkpt lat="44.547700" lon="8.050720">
			 <ele>661</ele>
			<time>2017-11-11T03:33:30Z</time>
			</trkpt>
		
			<trkpt lat="44.547650" lon="8.050910">
			 <ele>663</ele>
			<time>2017-11-11T03:35:30Z</time>
			</trkpt>
		
			<trkpt lat="44.547610" lon="8.051060">
			 <ele>665</ele>
			<time>2017-11-11T03:37:30Z</time>
			</trkpt>
		
			<trkpt lat="44.547570" lon="8.051210">
			 <ele>667</ele>
			<time>2017-11-11T03:39:30Z</time>
			</trkpt>
		
			<trkpt lat="44.547500" lon="8.051490">
			 <ele>671</ele>
			<time>2017-11-11T03:41:30Z</time>
			</trkpt>
		
			<trkpt lat="44.547440" lon="8.051720">
			 <ele>674</ele>
			<time>2017-11-11T03:43:30Z</time>
			</trkpt>
		
			<trkpt lat="44.547330" lon="8.052110">
			 <ele>678</ele>
			<time>2017-11-11T03:45:30Z</time>
			</trkpt>
		
			<trkpt lat="44.547260" lon="8.052310">
			 <ele>680</ele>
			<time>2017-11-11T03:47:30Z</time>
			</trkpt>
		
			<trkpt lat="44.547190" lon="8.052470">
			 <ele>681</ele>
			<time>2017-11-11T03:49:30Z</time>
			</trkpt>
		
			<trkpt lat="44.547150" lon="8.052560">
			 <ele>681</ele>
			<time>2017-11-11T03:51:30Z</time>
			</trkpt>
		
			<trkpt lat="44.547080" lon="8.052680">
			 <ele>682</ele>
			<time>2017-11-11T03:53:30Z</time>
			</trkpt>
		
			<trkpt lat="44.546880" lon="8.052850">
			 <ele>681</ele>
			<time>2017-11-11T03:55:30Z</time>
			</trkpt>
		
			<trkpt lat="44.546670" lon="8.053030">
			 <ele>680</ele>
			<time>2017-11-11T03:57:30Z</time>
			</trkpt>
		
			<trkpt lat="44.546620" lon="8.053100">
			 <ele>680</ele>
			<time>2017-11-11T03:59:30Z</time>
			</trkpt>
		
			<trkpt lat="44.546590" lon="8.053160">
			 <ele>680</ele>
			<time>2017-11-11T04:01:30Z</time>
			</trkpt>
		
			<trkpt lat="44.546550" lon="8.053290">
			 <ele>682</ele>
			<time>2017-11-11T04:03:30Z</time>
			</trkpt>
		
			<trkpt lat="44.546520" lon="8.053540">
			 <ele>684</ele>
			<time>2017-11-11T04:05:30Z</time>
			</trkpt>
		
			<trkpt lat="44.546450" lon="8.054180">
			 <ele>689</ele>
			<time>2017-11-11T04:07:30Z</time>
			</trkpt>
		
			<trkpt lat="44.546380" lon="8.054940">
			 <ele>696</ele>
			<time>2017-11-11T04:09:30Z</time>
			</trkpt>
		
			<trkpt lat="44.546330" lon="8.055840">
			 <ele>705</ele>
			<time>2017-11-11T04:11:30Z</time>
			</trkpt>
		
			<trkpt lat="44.546310" lon="8.056160">
			 <ele>708</ele>
			<time>2017-11-11T04:13:30Z</time>
			</trkpt>
		
			<trkpt lat="44.546280" lon="8.056340">
			 <ele>709</ele>
			<time>2017-11-11T04:15:30Z</time>
			</trkpt>
		
			<trkpt lat="44.546240" lon="8.056680">
			 <ele>712</ele>
			<time>2017-11-11T04:17:30Z</time>
			</trkpt>
		
			<trkpt lat="44.546200" lon="8.056970">
			 <ele>715</ele>
			<time>2017-11-11T04:19:30Z</time>
			</trkpt>
		
			<trkpt lat="44.546200" lon="8.057010">
			 <ele>715</ele>
			<time>2017-11-11T04:21:30Z</time>
			</trkpt>
		
			<trkpt lat="44.546190" lon="8.057260">
			 <ele>718</ele>
			<time>2017-11-11T04:23:30Z</time>
			</trkpt>
		
			<trkpt lat="44.546190" lon="8.057410">
			 <ele>719</ele>
			<time>2017-11-11T04:25:30Z</time>
			</trkpt>
		
			<trkpt lat="44.546190" lon="8.057530">
			 <ele>721</ele>
			<time>2017-11-11T04:27:30Z</time>
			</trkpt>
		
			<trkpt lat="44.546190" lon="8.057550">
			 <ele>721</ele>
			<time>2017-11-11T04:29:30Z</time>
			</trkpt>
		
			<trkpt lat="44.546220" lon="8.057720">
			 <ele>723</ele>
			<time>2017-11-11T04:31:30Z</time>
			</trkpt>
		
			<trkpt lat="44.546230" lon="8.057810">
			 <ele>724</ele>
			<time>2017-11-11T04:33:30Z</time>
			</trkpt>
		
			<trkpt lat="44.546240" lon="8.057890">
			 <ele>725</ele>
			<time>2017-11-11T04:35:30Z</time>
			</trkpt>
		
			<trkpt lat="44.546250" lon="8.057990">
			 <ele>726</ele>
			<time>2017-11-11T04:37:30Z</time>
			</trkpt>
		
			<trkpt lat="44.546250" lon="8.058080">
			 <ele>727</ele>
			<time>2017-11-11T04:39:30Z</time>
			</trkpt>
		
			<trkpt lat="44.546240" lon="8.058190">
			 <ele>728</ele>
			<time>2017-11-11T04:41:30Z</time>
			</trkpt>
		
			<trkpt lat="44.546230" lon="8.058280">
			 <ele>729</ele>
			<time>2017-11-11T04:43:30Z</time>
			</trkpt>
		
			<trkpt lat="44.546210" lon="8.058440">
			 <ele>730</ele>
			<time>2017-11-11T04:45:30Z</time>
			</trkpt>
		
			<trkpt lat="44.546130" lon="8.058720">
			 <ele>730</ele>
			<time>2017-11-11T04:47:30Z</time>
			</trkpt>
		
			<trkpt lat="44.546110" lon="8.058810">
			 <ele>730</ele>
			<time>2017-11-11T04:49:30Z</time>
			</trkpt>
		
			<trkpt lat="44.546110" lon="8.058810">
			 <ele>730</ele>
			<time>2017-11-11T04:51:30Z</time>
			</trkpt>
		
			<trkpt lat="44.546120" lon="8.058830">
			 <ele>730</ele>
			<time>2017-11-11T04:53:30Z</time>
			</trkpt>
		
			<trkpt lat="44.546340" lon="8.059050">
			 <ele>730</ele>
			<time>2017-11-11T04:55:30Z</time>
			</trkpt>
		
				</trkseg>
			   </trk>
			 </gpx>
	